»·PEaware :: N4HB KGEG-KBFI

N4HB :: KGEG-KBFI

FLIGHT INFORMATION

Flight Status: Arrived
Operator: Privately registered:
United States
More flights under this callsign
Pilot: Drew M. (13549)
Aircraft: ECLIPSE 500
(EA50)
More flights by this aircraft type
Origin: KGEG Spokane Intl
United States
Destination: KBFI Boeing Field/King Co Intl
United States
More flights between these airports :: More routes between these airports
Route: TEMPL GLASR1
File this flight plan on PilotEdge
Remarks:
Altitude:
(Current/Filed)
24,000ft
Speed:
(Current/Filed)
350kts
Departed: 11-Jan-18 10:07 PM
Arrived: 11-Jan-18 11:04 PM
Distance/Time
Traveled:
193nm/0:57
Distance/Time
To Go:
Arrived

Flight Plot

Page will automatically refresh every two minutes.

Flight plan parsing failed; only flown route is shown


Map Options




Map Legend


Flown Route
Filed Route
Departure Airport
Arrival Airport
Navaid (VOR, NDB)
Fix

Horizontal Profiles

Position Reports

Time Latitude Longitude Heading Altitude Ground
Speed
11-Jan-18 21:43 47.621435 -117.524147 269 2356ft 0kts
11-Jan-18 21:44 47.621435 -117.524147 269 2356ft 0kts
11-Jan-18 21:45 47.621435 -117.524147 269 2356ft 0kts
11-Jan-18 21:46 47.621435 -117.524147 269 2356ft 0kts
11-Jan-18 21:47 47.621435 -117.524147 269 2356ft 0kts
11-Jan-18 21:48 47.621435 -117.524147 269 2356ft 0kts
11-Jan-18 21:49 47.621435 -117.524147 269 2356ft 0kts
11-Jan-18 21:50 47.621435 -117.524147 269 2356ft 0kts
11-Jan-18 21:51 47.621435 -117.524147 269 2356ft 0kts
11-Jan-18 21:52 47.621435 -117.524147 269 2356ft 0kts
11-Jan-18 21:53 47.621435 -117.524147 269 2356ft 0kts
11-Jan-18 21:54 47.621435 -117.524147 269 2356ft 0kts
11-Jan-18 21:55 47.621435 -117.524147 269 2356ft 0kts
11-Jan-18 21:56 47.621435 -117.524147 269 2356ft 0kts
11-Jan-18 21:57 47.621435 -117.524147 269 2356ft 0kts
11-Jan-18 21:58 47.621435 -117.524147 269 2356ft 0kts
11-Jan-18 21:59 47.621435 -117.524147 269 2356ft 0kts
11-Jan-18 22:00 47.621435 -117.524147 269 2356ft 0kts
11-Jan-18 22:01 47.621435 -117.524147 269 2356ft 0kts
11-Jan-18 22:02 47.621435 -117.524147 269 2356ft 0kts
11-Jan-18 22:03 47.621435 -117.524147 269 2356ft 0kts
11-Jan-18 22:04 47.621435 -117.524147 269 2356ft 0kts
11-Jan-18 22:05 47.621435 -117.524147 269 2356ft 0kts
11-Jan-18 22:06 47.621435 -117.524147 269 2356ft 0kts
11-Jan-18 22:07 47.621908 -117.525016 329 2355ft 12kts
11-Jan-18 22:08 47.623365 -117.525289 0 2352ft 5kts
11-Jan-18 22:09 47.625955 -117.522717 44 2344ft 8kts
11-Jan-18 22:10 47.627112 -117.520986 44 2340ft 8kts
11-Jan-18 22:11 47.629167 -117.517891 45 2328ft 5kts
11-Jan-18 22:12 47.630678 -117.517693 317 2322ft 7kts
11-Jan-18 22:13 47.628263 -117.522687 225 2339ft 77kts
11-Jan-18 22:14 47.598516 -117.558959 219 4022ft 175kts
11-Jan-18 22:15 47.566354 -117.603351 271 6000ft 144kts
11-Jan-18 22:16 47.578186 -117.667302 286 7974ft 180kts
11-Jan-18 22:17 47.588483 -117.739198 281 10699ft 180kts
11-Jan-18 22:18 47.597311 -117.818081 278 11978ft 235kts
11-Jan-18 22:19 47.606927 -117.919018 277 11973ft 254kts
11-Jan-18 22:20 47.616095 -118.023094 277 11972ft 255kts
11-Jan-18 22:21 47.624927 -118.127056 277 11971ft 255kts
11-Jan-18 22:22 47.633637 -118.231658 277 12059ft 260kts
11-Jan-18 22:23 47.641747 -118.330463 277 14549ft 232kts
11-Jan-18 22:24 47.649059 -118.420566 277 16636ft 219kts
11-Jan-18 22:25 47.656295 -118.510975 278 18494ft 223kts
11-Jan-18 22:26 47.663630 -118.603044 278 20174ft 228kts
11-Jan-18 22:27 47.670780 -118.693893 277 21656ft 233kts
11-Jan-18 22:28 47.678270 -118.790010 278 23070ft 237kts
11-Jan-18 22:29 47.685830 -118.888230 278 24021ft 241kts
11-Jan-18 22:30 47.693456 -118.988210 278 24030ft 274kts
11-Jan-18 22:31 47.702173 -119.104319 278 24024ft 287kts
11-Jan-18 22:32 47.710910 -119.222238 278 24018ft 287kts
11-Jan-18 22:33 47.719503 -119.339887 278 24014ft 287kts
11-Jan-18 22:34 47.727879 -119.456252 278 24013ft 281kts
11-Jan-18 22:35 47.736866 -119.571067 278 24012ft 281kts
11-Jan-18 22:36 47.745634 -119.682253 278 24019ft 281kts
11-Jan-18 22:37 47.754527 -119.795983 278 24020ft 280kts
11-Jan-18 22:38 47.763348 -119.910408 278 24028ft 280kts
11-Jan-18 22:39 47.771436 -120.016545 278 24034ft 280kts
11-Jan-18 22:40 47.780027 -120.130954 278 24034ft 279kts
11-Jan-18 22:41 47.788557 -120.245953 278 24033ft 279kts
11-Jan-18 22:42 47.796952 -120.360818 278 24032ft 280kts
11-Jan-18 22:43 47.805252 -120.475968 278 24031ft 280kts
11-Jan-18 22:44 47.813493 -120.591834 278 24031ft 286kts
11-Jan-18 22:45 47.820954 -120.698427 277 24037ft 287kts
11-Jan-18 22:46 47.829070 -120.815905 277 24035ft 286kts
11-Jan-18 22:47 47.837101 -120.933880 277 23828ft 292kts
11-Jan-18 22:48 47.844944 -121.050675 277 21828ft 271kts
11-Jan-18 22:49 47.852391 -121.163189 276 19820ft 272kts
11-Jan-18 22:50 47.859610 -121.274359 275 17806ft 269kts
11-Jan-18 22:51 47.866628 -121.384212 275 15790ft 265kts
11-Jan-18 22:52 47.873467 -121.492828 275 13773ft 263kts
11-Jan-18 22:53 47.880068 -121.597070 276 11979ft 243kts
11-Jan-18 22:54 47.883076 -121.691301 252 10510ft 261kts
11-Jan-18 22:55 47.837041 -121.767917 227 8460ft 249kts
11-Jan-18 22:56 47.789597 -121.834897 225 6962ft 217kts
11-Jan-18 22:57 47.746912 -121.901450 252 6953ft 234kts
11-Jan-18 22:58 47.752093 -121.997377 275 4961ft 226kts
11-Jan-18 22:59 47.756673 -122.089010 275 3048ft 217kts
11-Jan-18 23:00 47.761571 -122.176343 275 2653ft 233kts
11-Jan-18 23:01 47.766830 -122.265689 275 2160ft 206kts
11-Jan-18 23:02 47.759400 -122.350868 235 2158ft 217kts
11-Jan-18 23:03 47.725822 -122.425141 228 2149ft 213kts
11-Jan-18 23:04 47.685857 -122.438317 148 2153ft 177kts
11-Jan-18 23:05 47.637843 -122.394667 151 2156ft 173kts
11-Jan-18 23:06 47.606538 -122.367603 151 1512ft 137kts
11-Jan-18 23:07 47.579949 -122.344886 151 909ft 89kts
11-Jan-18 23:08 47.558313 -122.326366 151 448ft 97kts
11-Jan-18 23:09 47.533775 -122.305688 151 20ft 63kts
11-Jan-18 23:10 47.526617 -122.300603 229 20ft 10kts
11-Jan-18 23:11 47.526162 -122.301977 240 20ft 0kts

Navigation Log

Ident Type
Flight plan parsing failed, navigation log unavailable